createdAt,value
2019-05-18T01:22:07.598Z,30.80
2019-05-18T01:24:39.351Z,30.90
2019-05-18T01:27:11.958Z,30.90
2019-05-18T01:29:42.943Z,31.00
2019-05-18T01:32:13.991Z,31.00
2019-05-18T01:34:44.814Z,31.10
2019-05-18T01:37:15.764Z,31.10
2019-05-18T01:39:46.725Z,31.20
2019-05-18T01:42:17.541Z,31.30
2019-05-18T01:44:48.471Z,31.30
2019-05-18T01:47:20.600Z,31.40
2019-05-18T01:49:50.443Z,31.40
2019-05-18T01:52:21.471Z,31.50
2019-05-18T01:54:52.563Z,31.60
2019-05-18T01:57:23.404Z,31.60
2019-05-18T01:59:54.213Z,31.70
2019-05-18T02:02:25.307Z,31.70
2019-05-18T02:04:56.181Z,31.80
2019-05-18T02:07:27.193Z,31.90
2019-05-18T02:09:59.438Z,32.00
2019-05-18T02:12:30.864Z,32.00
2019-05-18T02:15:01.756Z,32.10
2019-05-18T02:17:32.816Z,32.20
2019-05-18T02:20:03.828Z,32.30
2019-05-18T02:22:35.097Z,32.30
2019-05-18T02:25:08.968Z,32.40
2019-05-18T02:27:39.916Z,32.40
2019-05-18T02:30:11.138Z,32.50
2019-05-18T02:32:42.152Z,32.60
2019-05-18T02:35:13.188Z,32.60
2019-05-18T02:37:44.323Z,32.70
2019-05-18T02:40:15.233Z,32.70
2019-05-18T02:42:46.179Z,32.70
2019-05-18T02:45:17.071Z,32.80
2019-05-18T02:47:47.972Z,32.90
2019-05-18T02:50:18.843Z,32.90
2019-05-18T02:52:49.705Z,33.00
2019-05-18T02:55:20.639Z,33.00
2019-05-18T02:57:51.575Z,33.00
2019-05-18T03:00:22.353Z,33.10
2019-05-18T03:02:53.304Z,33.20
2019-05-18T03:05:24.256Z,33.30
2019-05-18T03:07:55.465Z,33.30
2019-05-18T03:10:28.636Z,33.40
2019-05-18T03:12:59.483Z,33.40
2019-05-18T03:15:30.428Z,33.60
2019-05-18T03:18:01.338Z,33.60
2019-05-18T03:20:32.408Z,33.70
2019-05-18T03:23:03.236Z,33.70
2019-05-18T03:25:34.156Z,33.80
2019-05-18T03:28:06.411Z,33.80
2019-05-18T03:30:37.421Z,33.80
2019-05-18T03:33:08.130Z,33.90
2019-05-18T03:35:39.096Z,34.00
2019-05-18T03:38:09.965Z,34.00
2019-05-18T03:40:40.767Z,34.10
2019-05-18T03:43:11.752Z,34.20
2019-05-18T03:45:45.291Z,34.20
2019-05-18T03:48:16.236Z,34.30
2019-05-18T03:50:53.465Z,34.40
2019-05-18T03:53:24.338Z,34.40
2019-05-18T03:55:55.162Z,34.50
2019-05-18T03:58:25.930Z,34.50
2019-05-18T04:00:56.886Z,34.50
2019-05-18T04:03:27.874Z,34.60
2019-05-18T04:05:59.095Z,34.70
2019-05-18T04:08:30.011Z,34.70
2019-05-18T04:11:01.022Z,34.80
2019-05-18T04:13:31.878Z,34.80
2019-05-18T04:16:02.973Z,34.80
2019-05-18T04:18:33.842Z,34.80
2019-05-18T04:21:07.123Z,34.90
2019-05-18T04:23:38.193Z,34.90
2019-05-18T04:26:08.935Z,35.00
2019-05-18T04:28:39.614Z,35.00
2019-05-18T04:31:11.166Z,35.10
2019-05-18T04:33:42.113Z,35.20
2019-05-18T04:36:13.129Z,35.20
2019-05-18T04:38:43.888Z,35.20
2019-05-18T04:41:14.750Z,35.20
2019-05-18T04:43:45.740Z,35.20
2019-05-18T04:46:16.556Z,35.20
2019-05-18T04:48:47.458Z,35.20
2019-05-18T04:51:18.292Z,35.20
2019-05-18T04:53:49.349Z,35.30
2019-05-18T04:56:25.826Z,35.30
2019-05-18T04:58:56.752Z,35.30
2019-05-18T05:01:27.799Z,35.30
2019-05-18T05:03:58.681Z,35.40
2019-05-18T05:06:29.571Z,35.40
2019-05-18T05:09:00.968Z,35.50
2019-05-18T05:11:32.415Z,35.50
2019-05-18T05:14:03.384Z,35.60
2019-05-18T05:16:34.365Z,35.60
2019-05-18T05:19:08.563Z,35.70
2019-05-18T05:21:37.490Z,35.70
2019-05-18T05:24:08.298Z,35.80
2019-05-18T05:26:39.809Z,35.80
2019-05-18T05:29:10.959Z,35.90
2019-05-18T05:31:43.817Z,36.00
2019-05-18T05:34:15.068Z,36.10
2019-05-18T05:36:45.958Z,36.10
2019-05-18T05:39:16.828Z,36.00
2019-05-18T05:41:47.855Z,36.00
2019-05-18T05:44:18.731Z,36.00
2019-05-18T05:46:49.638Z,36.00
2019-05-18T05:49:20.572Z,36.00
2019-05-18T05:51:51.519Z,36.00
2019-05-18T05:54:22.436Z,36.00
2019-05-18T05:56:53.210Z,36.10
2019-05-18T05:59:24.178Z,36.10
2019-05-18T06:01:55.181Z,36.20
2019-05-18T06:04:26.187Z,36.10
2019-05-18T06:06:57.686Z,36.00
2019-05-18T06:09:28.561Z,36.00
2019-05-18T06:11:59.662Z,36.00
2019-05-18T06:14:30.872Z,36.00
2019-05-18T06:17:02.155Z,36.00
2019-05-18T06:19:32.973Z,36.10
2019-05-18T06:22:03.857Z,36.30
2019-05-18T06:24:34.829Z,36.30
2019-05-18T06:27:05.708Z,36.40
2019-05-18T06:29:36.743Z,36.40
2019-05-18T06:32:08.495Z,36.40
2019-05-18T06:34:39.289Z,36.30
2019-05-18T06:37:10.307Z,36.30
2019-05-18T06:39:41.194Z,36.20
2019-05-18T06:42:12.085Z,36.10
2019-05-18T06:44:42.876Z,36.20
2019-05-18T06:47:13.809Z,36.10
2019-05-18T06:49:44.834Z,36.10
2019-05-18T06:52:15.713Z,36.10
2019-05-18T06:54:46.649Z,36.10
2019-05-18T06:57:21.073Z,36.20
2019-05-18T06:59:54.145Z,36.30
2019-05-18T07:02:25.131Z,36.30
2019-05-18T07:04:56.426Z,36.40
2019-05-18T07:07:27.458Z,36.40
2019-05-18T07:09:58.197Z,36.40
2019-05-18T07:12:29.032Z,36.50
2019-05-18T07:15:00.548Z,36.50
2019-05-18T07:17:34.481Z,36.50
2019-05-18T07:20:04.223Z,36.50
2019-05-18T07:22:35.015Z,36.40
2019-05-18T07:25:07.442Z,36.40
2019-05-18T07:27:38.299Z,36.30
2019-05-18T07:30:10.520Z,36.30
2019-05-18T07:32:41.497Z,36.40
2019-05-18T07:35:12.390Z,36.40
2019-05-18T07:37:45.872Z,36.50
2019-05-18T07:40:16.610Z,36.60
2019-05-18T07:42:47.531Z,36.50
2019-05-18T07:45:18.397Z,36.50
2019-05-18T07:47:49.383Z,36.60
2019-05-18T07:50:20.298Z,36.50
2019-05-18T07:52:51.992Z,36.50
2019-05-18T07:55:23.464Z,36.60
2019-05-18T07:57:54.720Z,36.60
2019-05-18T08:00:25.572Z,36.50
2019-05-18T08:02:56.305Z,36.50
2019-05-18T08:05:27.421Z,36.50
2019-05-18T08:07:58.465Z,36.50
2019-05-18T08:10:31.905Z,36.50
2019-05-18T08:13:03.100Z,36.50
2019-05-18T08:15:33.990Z,36.50
2019-05-18T08:18:04.832Z,36.50
2019-05-18T08:20:37.112Z,36.60
2019-05-18T08:23:07.999Z,36.60
2019-05-18T08:25:38.763Z,36.70
2019-05-18T08:28:10.728Z,36.70
2019-05-18T08:30:41.595Z,36.70
2019-05-18T08:33:12.407Z,36.70
2019-05-18T08:35:43.341Z,36.60
2019-05-18T08:38:14.221Z,36.60
2019-05-18T08:40:45.221Z,36.60
2019-05-18T08:43:16.214Z,36.60
2019-05-18T08:45:47.163Z,36.60
2019-05-18T08:48:18.034Z,36.60
2019-05-18T08:50:49.755Z,36.60
2019-05-18T08:53:20.548Z,36.70
2019-05-18T08:55:51.386Z,36.70
2019-05-18T08:58:24.829Z,36.70
2019-05-18T09:00:55.827Z,36.70
2019-05-18T09:03:28.006Z,36.70
2019-05-18T09:05:59.100Z,36.70
2019-05-18T09:08:54.949Z,36.60
2019-05-18T09:11:25.893Z,36.60
2019-05-18T09:13:56.544Z,36.60
2019-05-18T09:16:27.544Z,36.60
2019-05-18T09:18:58.548Z,36.60
2019-05-18T09:21:30.157Z,36.70
2019-05-18T09:24:00.956Z,36.70
2019-05-18T09:26:31.917Z,36.70
2019-05-18T09:29:03.160Z,36.70
2019-05-18T09:31:34.228Z,36.70
2019-05-18T09:34:05.107Z,36.70
2019-05-18T09:36:36.133Z,36.70
2019-05-18T09:39:08.364Z,36.70
2019-05-18T09:41:39.029Z,36.70
2019-05-18T09:44:09.938Z,36.60
2019-05-18T09:46:40.746Z,36.60
2019-05-18T09:49:11.771Z,36.60
2019-05-18T09:51:45.003Z,36.60
2019-05-18T09:54:19.106Z,36.60
2019-05-18T09:56:50.026Z,36.60
2019-05-18T09:59:20.803Z,36.60
2019-05-18T10:01:51.820Z,36.60
2019-05-18T10:04:22.716Z,36.60
2019-05-18T10:06:53.879Z,36.60
2019-05-18T10:09:24.741Z,36.60
2019-05-18T10:11:55.639Z,36.50
2019-05-18T10:14:26.689Z,36.50
2019-05-18T10:16:57.739Z,36.50
2019-05-18T10:19:28.698Z,36.50
2019-05-18T10:21:59.624Z,36.40
2019-05-18T10:24:30.549Z,36.40
2019-05-18T10:27:02.493Z,36.40
2019-05-18T10:29:33.964Z,36.40
2019-05-18T10:32:04.780Z,36.30
2019-05-18T10:34:35.731Z,36.20
2019-05-18T10:37:06.673Z,36.10
2019-05-18T10:39:38.831Z,36.10
2019-05-18T10:42:09.761Z,36.00
2019-05-18T10:44:40.504Z,35.90
2019-05-18T10:47:11.620Z,35.90
2019-05-18T10:49:42.343Z,35.80
2019-05-18T10:52:13.316Z,35.80
2019-05-18T10:54:44.694Z,35.70
2019-05-18T10:57:15.645Z,35.70
2019-05-18T10:59:47.019Z,35.60
2019-05-18T11:02:19.148Z,35.50
2019-05-18T11:04:50.119Z,35.50
2019-05-18T11:07:21.052Z,35.50
2019-05-18T11:09:53.162Z,35.40
2019-05-18T11:12:25.430Z,35.40
2019-05-18T11:14:56.411Z,35.40
2019-05-18T11:17:27.442Z,35.30
2019-05-18T11:19:58.833Z,35.20
2019-05-18T11:22:29.640Z,35.20
2019-05-18T11:25:00.693Z,35.20
2019-05-18T11:27:31.651Z,35.10
2019-05-18T11:30:02.876Z,35.10
2019-05-18T11:32:34.204Z,35.10
2019-05-18T11:35:05.589Z,35.00
2019-05-18T11:37:36.664Z,34.90
2019-05-18T11:40:10.356Z,34.90
2019-05-18T11:42:41.399Z,34.90
2019-05-18T11:45:13.466Z,34.90
2019-05-18T11:47:44.230Z,34.80
2019-05-18T11:50:15.348Z,34.80
2019-05-18T11:52:46.477Z,34.80
2019-05-18T11:55:18.104Z,34.70
2019-05-18T11:57:49.393Z,34.70
2019-05-18T12:00:23.161Z,34.60
2019-05-18T12:02:56.945Z,34.60
2019-05-18T12:05:27.784Z,34.60
2019-05-18T12:07:58.800Z,34.60
2019-05-18T12:10:29.789Z,34.50
2019-05-18T12:13:00.778Z,34.50
2019-05-18T12:15:31.793Z,34.40
2019-05-18T12:18:02.715Z,34.40
2019-05-18T12:20:33.811Z,34.40
2019-05-18T12:23:07.992Z,34.40
2019-05-18T12:25:37.733Z,34.30
2019-05-18T12:28:08.707Z,34.30
2019-05-18T12:30:39.592Z,34.30
2019-05-18T12:33:10.792Z,34.20
2019-05-18T12:35:41.788Z,34.20
2019-05-18T12:38:12.770Z,34.20
2019-05-18T12:40:43.873Z,34.10
2019-05-18T12:43:14.821Z,34.10
2019-05-18T12:45:45.991Z,34.10
2019-05-18T12:48:17.146Z,34.10
2019-05-18T12:50:48.109Z,34.10
2019-05-18T12:53:19.068Z,34.10
2019-05-18T12:55:50.080Z,34.00
2019-05-18T12:58:21.209Z,34.00
2019-05-18T13:00:52.103Z,34.00
2019-05-18T13:03:23.217Z,34.00
2019-05-18T13:05:54.208Z,34.00
2019-05-18T13:08:24.993Z,34.00
2019-05-18T13:10:55.851Z,33.90
2019-05-18T13:13:26.821Z,33.90
2019-05-18T13:15:57.771Z,33.90
2019-05-18T13:18:28.609Z,33.90
2019-05-18T13:20:59.611Z,33.80
2019-05-18T13:23:30.696Z,33.80
2019-05-18T13:26:01.600Z,33.70
2019-05-18T13:28:32.491Z,33.70
2019-05-18T13:31:03.356Z,33.70
2019-05-18T13:33:34.376Z,33.70
2019-05-18T13:36:05.374Z,33.60
2019-05-18T13:38:36.733Z,33.70
2019-05-18T13:41:07.724Z,33.60
2019-05-18T13:43:38.609Z,33.60
2019-05-18T13:46:09.563Z,33.50
2019-05-18T13:48:40.322Z,33.50
2019-05-18T13:51:11.055Z,33.50
2019-05-18T13:53:42.062Z,33.50
2019-05-18T13:56:13.094Z,33.50
2019-05-18T13:58:43.911Z,33.40
2019-05-18T14:01:14.673Z,33.50
2019-05-18T14:03:45.837Z,33.40
2019-05-18T14:06:16.725Z,33.40
2019-05-18T14:08:47.668Z,33.40
2019-05-18T14:11:18.648Z,33.40
2019-05-18T14:13:49.454Z,33.40
2019-05-18T14:16:20.281Z,33.40
2019-05-18T14:18:51.418Z,33.40
2019-05-18T14:21:22.093Z,33.40
2019-05-18T14:23:52.962Z,33.30
2019-05-18T14:26:23.935Z,33.30
2019-05-18T14:28:54.935Z,33.30
2019-05-18T14:31:25.696Z,33.30
2019-05-18T14:33:56.664Z,33.30
2019-05-18T14:36:27.656Z,33.20
2019-05-18T14:38:58.614Z,33.20
2019-05-18T14:41:29.892Z,33.20
2019-05-18T14:44:01.143Z,33.10
2019-05-18T14:46:32.057Z,33.10
2019-05-18T14:49:03.158Z,33.10
2019-05-18T14:51:34.193Z,33.10
2019-05-18T14:54:05.184Z,33.10
2019-05-18T14:56:36.007Z,33.10
2019-05-18T14:59:06.965Z,33.10
2019-05-18T15:01:38.032Z,33.10
2019-05-18T15:04:08.954Z,33.00
2019-05-18T15:06:39.953Z,33.00
2019-05-18T15:09:11.054Z,33.00
2019-05-18T15:11:42.060Z,33.00
2019-05-18T15:14:12.903Z,33.00
2019-05-18T15:16:43.720Z,33.00
2019-05-18T15:19:14.678Z,32.90
2019-05-18T15:21:45.819Z,32.90
2019-05-18T15:24:16.741Z,32.90
2019-05-18T15:26:47.789Z,32.90
2019-05-18T15:29:18.713Z,32.90
2019-05-18T15:31:49.526Z,32.90
2019-05-18T15:34:20.684Z,32.90
2019-05-18T15:36:51.740Z,32.90
2019-05-18T15:39:22.602Z,32.90
2019-05-18T15:41:53.484Z,32.90
2019-05-18T15:44:24.310Z,32.90
2019-05-18T15:46:55.335Z,32.80
2019-05-18T15:49:26.214Z,32.80
2019-05-18T15:51:57.256Z,32.80
2019-05-18T15:54:28.140Z,32.80
2019-05-18T15:56:59.086Z,32.80
2019-05-18T15:59:30.072Z,32.70
2019-05-18T16:02:01.068Z,32.70
2019-05-18T16:04:31.978Z,32.70
2019-05-18T16:07:02.836Z,32.70
2019-05-18T16:09:33.911Z,32.70
2019-05-18T16:12:04.760Z,32.60
2019-05-18T16:14:38.908Z,32.60
2019-05-18T16:17:09.885Z,32.60
2019-05-18T16:19:43.752Z,32.60
2019-05-18T16:22:14.644Z,32.60
2019-05-18T16:24:45.623Z,32.50
2019-05-18T16:27:16.608Z,32.50
2019-05-18T16:29:47.574Z,32.50
2019-05-18T16:32:20.094Z,32.50
2019-05-18T16:34:51.012Z,32.40
2019-05-18T16:37:21.800Z,32.40
2019-05-18T16:39:52.850Z,32.30
2019-05-18T16:42:23.666Z,32.30
2019-05-18T16:44:54.361Z,32.30
2019-05-18T16:47:25.154Z,32.30
2019-05-18T16:49:56.234Z,32.30
2019-05-18T16:52:27.205Z,32.30
2019-05-18T16:54:58.210Z,32.20
2019-05-18T16:57:29.241Z,32.20
2019-05-18T17:00:00.183Z,32.20
2019-05-18T17:02:34.046Z,32.20
2019-05-18T17:05:05.099Z,32.20
2019-05-18T17:07:35.974Z,32.20
2019-05-18T17:10:08.519Z,32.20
2019-05-18T17:12:39.988Z,32.20
2019-05-18T17:15:11.527Z,32.10
2019-05-18T17:17:42.533Z,32.20
2019-05-18T17:20:13.688Z,32.10
2019-05-18T17:22:44.767Z,32.10
2019-05-18T17:25:17.056Z,32.10
2019-05-18T17:27:48.025Z,32.10
2019-05-18T17:30:18.975Z,32.00
2019-05-18T17:32:49.855Z,32.00
2019-05-18T17:35:20.871Z,32.00
2019-05-18T17:37:52.215Z,32.00
2019-05-18T17:40:23.316Z,32.00
2019-05-18T17:42:54.210Z,32.00
2019-05-18T17:45:28.398Z,31.90
2019-05-18T17:47:59.080Z,31.90
2019-05-18T17:50:29.819Z,31.90
2019-05-18T17:53:00.586Z,31.90
2019-05-18T17:55:31.484Z,31.90
2019-05-18T17:58:02.386Z,31.80
2019-05-18T18:00:33.299Z,31.80
2019-05-18T18:03:04.299Z,31.80
2019-05-18T18:05:35.726Z,31.80
2019-05-18T18:08:06.616Z,31.70
2019-05-18T18:10:37.375Z,31.70
2019-05-18T18:13:09.591Z,31.70
2019-05-18T18:15:40.537Z,31.70
2019-05-18T18:18:11.322Z,31.70
2019-05-18T18:20:42.395Z,31.70
2019-05-18T18:23:13.187Z,31.60
2019-05-18T18:25:44.255Z,31.60
2019-05-18T18:28:15.402Z,31.60
2019-05-18T18:30:46.581Z,31.50
2019-05-18T18:33:17.546Z,31.60
2019-05-18T18:35:48.369Z,31.50
2019-05-18T18:38:19.152Z,31.50
2019-05-18T18:40:49.983Z,31.50
2019-05-18T18:43:21.243Z,31.50
2019-05-18T18:45:52.152Z,31.40
2019-05-18T18:48:26.263Z,31.40
2019-05-18T18:50:54.254Z,31.50
2019-05-18T18:53:24.984Z,31.40
2019-05-18T18:55:55.974Z,31.30
2019-05-18T18:58:26.751Z,31.30
2019-05-18T19:00:57.814Z,31.30
2019-05-18T19:03:28.865Z,31.30
2019-05-18T19:06:02.545Z,31.30
2019-05-18T19:08:34.630Z,31.30
2019-05-18T19:11:05.474Z,31.30
2019-05-18T19:13:36.536Z,31.30
2019-05-18T19:16:07.635Z,31.30
2019-05-18T19:18:38.914Z,31.20
2019-05-18T19:21:10.137Z,31.20
2019-05-18T19:23:40.994Z,31.20
2019-05-18T19:26:11.900Z,31.20
2019-05-18T19:28:44.072Z,31.20
2019-05-18T19:31:13.993Z,31.20
2019-05-18T19:33:44.798Z,31.20
2019-05-18T19:36:16.300Z,31.20
